createdAt,value
2023-01-12T00:00:01.096Z,5.80
2023-01-12T00:02:29.934Z,5.80
2023-01-12T00:05:00.285Z,5.90
2023-01-12T00:07:29.483Z,6.00
2023-01-12T00:09:58.342Z,6.00
2023-01-12T00:12:27.103Z,6.10
2023-01-12T00:14:56.003Z,6.20
2023-01-12T00:17:24.754Z,6.30
2023-01-12T00:19:54.518Z,6.40
2023-01-12T00:22:24.857Z,6.50
2023-01-12T00:24:55.110Z,6.60
2023-01-12T00:27:24.228Z,6.60
2023-01-12T00:29:53.010Z,6.70
2023-01-12T00:32:22.552Z,6.70
2023-01-12T00:34:51.245Z,6.70
2023-01-12T00:37:21.034Z,6.70
2023-01-12T00:40:02.023Z,6.80
2023-01-12T00:42:48.564Z,6.80
2023-01-12T00:45:23.633Z,6.80
2023-01-12T00:47:53.532Z,6.80
2023-01-12T00:50:22.573Z,6.90
2023-01-12T00:52:51.377Z,7.00
2023-01-12T00:55:21.619Z,7.00
2023-01-12T00:57:50.397Z,7.10
2023-01-12T01:00:19.970Z,7.20
2023-01-12T01:02:48.869Z,7.20
2023-01-12T01:05:18.912Z,7.30
2023-01-12T01:07:48.248Z,7.30
2023-01-12T01:10:18.119Z,7.30
2023-01-12T01:12:48.562Z,7.40
2023-01-12T01:15:17.607Z,7.40
2023-01-12T01:17:46.440Z,7.40
2023-01-12T01:20:15.223Z,7.50
2023-01-12T01:22:44.042Z,7.50
2023-01-12T01:25:12.943Z,7.60
2023-01-12T01:27:41.839Z,7.60
2023-01-12T01:30:13.571Z,7.60
2023-01-12T01:32:42.419Z,7.60
2023-01-12T01:35:11.426Z,7.60
2023-01-12T01:37:40.324Z,7.60
2023-01-12T01:40:10.468Z,7.60
2023-01-12T01:42:40.412Z,7.60
2023-01-12T01:45:16.341Z,7.60
2023-01-12T01:47:48.597Z,7.60
2023-01-12T01:50:21.317Z,7.60
2023-01-12T01:52:53.561Z,7.60
2023-01-12T01:55:25.514Z,7.60
2023-01-12T01:57:58.402Z,7.60
2023-01-12T02:00:29.828Z,7.60
2023-01-12T02:02:59.325Z,7.60
2023-01-12T02:05:29.937Z,7.60
2023-01-12T02:08:04.391Z,7.60
2023-01-12T02:10:33.451Z,7.60
2023-01-12T02:13:19.851Z,7.70
2023-01-12T02:16:20.363Z,7.60
2023-01-12T02:19:02.243Z,7.60
2023-01-12T02:22:09.326Z,7.60
2023-01-12T02:25:07.891Z,7.60
2023-01-12T02:27:55.935Z,7.50
2023-01-12T02:31:00.463Z,7.60
2023-01-12T02:33:48.140Z,7.60
2023-01-12T02:36:24.609Z,7.50
2023-01-12T02:38:59.076Z,7.50
2023-01-12T02:41:55.345Z,7.60
2023-01-12T02:44:31.561Z,7.50
2023-01-12T02:47:02.299Z,7.50
2023-01-12T02:49:36.600Z,7.40
2023-01-12T02:52:10.571Z,7.40
2023-01-12T02:54:41.851Z,7.40
2023-01-12T02:57:12.181Z,7.40
2023-01-12T02:59:43.773Z,7.30
2023-01-12T03:02:15.257Z,7.20
2023-01-12T03:04:45.497Z,7.20
2023-01-12T03:07:38.865Z,7.10
2023-01-12T03:10:19.850Z,7.00
2023-01-12T03:12:52.787Z,6.90
2023-01-12T03:15:22.003Z,6.80
2023-01-12T03:17:56.205Z,6.60
2023-01-12T03:20:29.480Z,6.50
2023-01-12T03:23:02.571Z,6.40
2023-01-12T03:25:34.492Z,6.30
2023-01-12T03:28:06.347Z,6.30
2023-01-12T03:30:39.123Z,6.20
2023-01-12T03:33:08.823Z,6.20
2023-01-12T03:35:49.949Z,6.10
2023-01-12T03:38:25.944Z,6.00
2023-01-12T03:41:01.848Z,5.90
2023-01-12T03:43:35.060Z,5.80
2023-01-12T03:46:10.421Z,5.80
2023-01-12T03:48:44.564Z,5.70
2023-01-12T03:51:18.733Z,5.80
2023-01-12T03:53:50.671Z,5.80
2023-01-12T03:56:22.216Z,5.70
2023-01-12T03:58:51.887Z,5.70
2023-01-12T04:01:21.075Z,5.70
2023-01-12T04:03:50.613Z,5.60
2023-01-12T04:06:20.869Z,5.60
2023-01-12T04:08:49.551Z,5.60
2023-01-12T04:11:35.615Z,5.60
2023-01-12T04:14:04.557Z,5.60
2023-01-12T04:16:33.353Z,5.60
2023-01-12T04:19:02.099Z,5.60
2023-01-12T04:21:50.162Z,5.60
2023-01-12T04:24:21.783Z,5.70
2023-01-12T04:26:50.579Z,5.80
2023-01-12T04:29:19.421Z,5.90
2023-01-12T04:31:48.372Z,5.90
2023-01-12T04:34:17.254Z,6.00
2023-01-12T04:36:47.577Z,6.00
2023-01-12T04:39:16.278Z,6.10
2023-01-12T04:41:45.154Z,6.10
2023-01-12T04:44:14.029Z,6.10
2023-01-12T04:46:42.726Z,6.20
2023-01-12T04:49:11.485Z,6.20
2023-01-12T04:51:40.311Z,6.30
2023-01-12T04:54:11.227Z,6.30
2023-01-12T04:56:40.024Z,6.30
2023-01-12T04:59:10.772Z,6.40
2023-01-12T05:01:39.896Z,6.40
2023-01-12T05:04:10.782Z,6.40
2023-01-12T05:06:39.751Z,6.40
2023-01-12T05:09:40.700Z,6.40
2023-01-12T05:12:09.535Z,6.40
2023-01-12T05:14:38.377Z,6.40
2023-01-12T05:17:07.189Z,6.40
2023-01-12T05:19:35.919Z,6.50
2023-01-12T05:22:04.683Z,6.40
2023-01-12T05:24:35.141Z,6.40
2023-01-12T05:27:04.192Z,6.40
2023-01-12T05:29:33.073Z,6.40
2023-01-12T05:32:01.795Z,6.40
2023-01-12T05:34:30.632Z,6.50
2023-01-12T05:36:59.315Z,6.50
2023-01-12T05:39:28.207Z,6.50
2023-01-12T05:42:15.998Z,6.50
2023-01-12T05:44:44.789Z,6.50
2023-01-12T05:47:13.594Z,6.50
2023-01-12T05:49:42.477Z,6.50
2023-01-12T05:52:11.351Z,6.60
2023-01-12T05:54:40.159Z,6.60
2023-01-12T05:57:10.436Z,6.60
2023-01-12T05:59:43.050Z,6.60
2023-01-12T06:02:17.352Z,6.70
2023-01-12T06:04:46.162Z,6.60
2023-01-12T06:07:15.725Z,6.70
2023-01-12T06:09:46.652Z,6.70
2023-01-12T06:12:34.424Z,6.70
2023-01-12T06:15:03.330Z,6.70
2023-01-12T06:17:32.573Z,6.70
2023-01-12T06:20:01.380Z,6.70
2023-01-12T06:22:30.197Z,6.70
2023-01-12T06:24:59.136Z,6.70
2023-01-12T06:27:35.439Z,6.70
2023-01-12T06:30:04.262Z,6.70
2023-01-12T06:32:33.685Z,6.70
2023-01-12T06:35:13.973Z,6.70
2023-01-12T06:37:47.115Z,6.70
2023-01-12T06:40:17.333Z,6.70
2023-01-12T06:42:47.575Z,6.70
2023-01-12T06:45:16.385Z,6.70
2023-01-12T06:47:49.447Z,6.70
2023-01-12T06:50:18.757Z,6.70
2023-01-12T06:52:47.526Z,6.70
2023-01-12T06:55:16.373Z,6.70
2023-01-12T06:57:46.612Z,6.80
2023-01-12T07:00:16.207Z,6.70
2023-01-12T07:02:44.968Z,6.70
2023-01-12T07:05:13.799Z,6.70
2023-01-12T07:07:43.780Z,6.60
2023-01-12T07:10:13.486Z,6.60
2023-01-12T07:12:42.481Z,6.60
2023-01-12T07:15:14.707Z,6.60
2023-01-12T07:17:43.386Z,6.60
2023-01-12T07:20:15.210Z,6.70
2023-01-12T07:22:44.100Z,6.70
2023-01-12T07:25:12.790Z,6.70
2023-01-12T07:27:41.492Z,6.70
2023-01-12T07:30:14.016Z,6.80
2023-01-12T07:32:43.168Z,6.80
2023-01-12T07:35:12.414Z,6.80
2023-01-12T07:37:54.915Z,7.00
2023-01-12T07:40:23.988Z,7.10
2023-01-12T07:43:00.565Z,7.30
2023-01-12T07:45:31.811Z,7.40
2023-01-12T07:48:01.163Z,7.50
2023-01-12T07:50:31.681Z,7.70
2023-01-12T07:53:02.850Z,7.80
2023-01-12T07:55:32.716Z,7.90
2023-01-12T07:58:04.260Z,7.90
2023-01-12T08:00:34.919Z,8.00
2023-01-12T08:03:08.839Z,8.10
2023-01-12T08:05:38.918Z,8.20
2023-01-12T08:08:08.887Z,8.30
2023-01-12T08:10:37.599Z,8.40
2023-01-12T08:13:06.467Z,8.40
2023-01-12T08:15:41.705Z,8.50
2023-01-12T08:18:17.227Z,8.50
2023-01-12T08:20:46.575Z,8.50
2023-01-12T08:23:19.366Z,8.50
2023-01-12T08:25:56.375Z,8.50
2023-01-12T08:28:29.888Z,8.60
2023-01-12T08:31:00.209Z,8.60
2023-01-12T08:33:29.133Z,8.60
2023-01-12T08:35:59.036Z,8.70
2023-01-12T08:38:27.854Z,8.70
2023-01-12T08:41:13.972Z,8.70
2023-01-12T08:43:59.586Z,8.70
2023-01-12T08:46:29.885Z,8.70
2023-01-12T08:48:58.658Z,8.80
2023-01-12T08:51:27.508Z,8.80
2023-01-12T08:53:56.294Z,8.80
2023-01-12T08:56:25.378Z,8.80
2023-01-12T08:58:54.024Z,8.90
2023-01-12T09:01:23.161Z,8.90
2023-01-12T09:03:53.431Z,9.00
2023-01-12T09:06:24.965Z,9.00
2023-01-12T09:08:55.769Z,9.10
2023-01-12T09:11:25.596Z,9.10
2023-01-12T09:13:56.226Z,9.20
2023-01-12T09:16:25.469Z,9.30
2023-01-12T09:18:55.768Z,9.50
2023-01-12T09:21:26.741Z,10.00
2023-01-12T09:23:56.366Z,10.20
2023-01-12T09:26:28.496Z,10.20
2023-01-12T09:28:58.386Z,10.10
2023-01-12T09:31:32.425Z,10.00
2023-01-12T09:34:03.297Z,9.90
2023-01-12T09:36:34.516Z,9.80
2023-01-12T09:39:04.383Z,9.70
2023-01-12T09:41:53.488Z,9.60
2023-01-12T09:44:44.380Z,9.60
2023-01-12T09:47:20.560Z,9.60
2023-01-12T09:50:08.784Z,9.60
2023-01-12T09:52:50.634Z,9.50
2023-01-12T09:55:22.511Z,9.50
2023-01-12T09:58:19.621Z,9.50
2023-01-12T10:00:52.265Z,9.40
2023-01-12T10:03:29.575Z,9.50
2023-01-12T10:06:01.827Z,9.40
2023-01-12T10:08:34.882Z,9.40
2023-01-12T10:11:18.085Z,9.40
2023-01-12T10:14:17.916Z,9.40
2023-01-12T10:17:01.996Z,9.30
2023-01-12T10:19:36.304Z,9.40
2023-01-12T10:22:17.687Z,9.50
2023-01-12T10:24:47.682Z,9.50
2023-01-12T10:27:18.253Z,9.60
2023-01-12T10:29:49.672Z,9.70
2023-01-12T10:32:18.410Z,9.70
2023-01-12T10:34:51.570Z,9.80
2023-01-12T10:37:21.804Z,9.80
2023-01-12T10:39:53.925Z,9.90
2023-01-12T10:42:41.474Z,9.90
2023-01-12T10:45:20.845Z,9.90
2023-01-12T10:47:51.086Z,9.90
2023-01-12T10:50:26.410Z,9.80
2023-01-12T10:53:02.452Z,9.80
2023-01-12T10:55:33.757Z,9.80
2023-01-12T10:58:03.047Z,9.80
2023-01-12T11:00:32.365Z,9.70
2023-01-12T11:03:01.114Z,9.70
2023-01-12T11:05:34.227Z,9.60
2023-01-12T11:08:04.775Z,9.60
2023-01-12T11:10:37.508Z,9.60
2023-01-12T11:13:09.079Z,9.60
2023-01-12T11:15:40.186Z,9.50
2023-01-12T11:18:29.541Z,9.50
2023-01-12T11:21:03.186Z,9.50
2023-01-12T11:23:39.989Z,9.50
2023-01-12T11:26:18.853Z,9.50
2023-01-12T11:28:52.235Z,9.50
2023-01-12T11:31:24.257Z,9.50
2023-01-12T11:34:02.214Z,9.60
2023-01-12T11:36:38.469Z,9.50
2023-01-12T11:39:14.537Z,9.50
2023-01-12T11:42:08.183Z,9.40
2023-01-12T11:44:43.814Z,9.30
2023-01-12T11:47:19.428Z,9.20
2023-01-12T11:49:57.465Z,9.10
2023-01-12T11:52:28.537Z,9.10
2023-01-12T11:54:59.033Z,9.10
2023-01-12T11:57:54.023Z,9.00
2023-01-12T12:00:41.746Z,9.10
2023-01-12T12:03:31.773Z,9.10
2023-01-12T12:06:22.742Z,9.10
2023-01-12T12:08:59.141Z,9.20
2023-01-12T12:11:41.694Z,9.30
2023-01-12T12:14:26.773Z,9.30
2023-01-12T12:17:05.084Z,9.40
2023-01-12T12:19:42.872Z,9.50
2023-01-12T12:22:22.282Z,9.60
2023-01-12T12:25:11.486Z,9.70
2023-01-12T12:27:57.385Z,9.80
2023-01-12T12:30:49.077Z,9.90
2023-01-12T12:33:51.874Z,10.00
2023-01-12T12:36:27.204Z,10.10
2023-01-12T12:39:25.923Z,10.20
2023-01-12T12:42:19.033Z,10.30
2023-01-12T12:45:13.799Z,10.20
2023-01-12T12:47:56.600Z,10.20
2023-01-12T12:50:30.470Z,10.20
2023-01-12T12:53:17.801Z,10.20
2023-01-12T12:55:47.242Z,10.20
2023-01-12T12:58:41.768Z,10.30
2023-01-12T13:01:55.723Z,10.30
2023-01-12T13:05:04.529Z,10.30
2023-01-12T13:07:38.192Z,10.40
2023-01-12T13:10:32.475Z,10.40
2023-01-12T13:13:24.368Z,10.50
2023-01-12T13:16:17.154Z,10.40
2023-01-12T13:19:06.189Z,10.40
2023-01-12T13:21:56.446Z,10.40
2023-01-12T13:24:55.291Z,10.40
2023-01-12T13:27:50.803Z,10.30
2023-01-12T13:30:40.468Z,10.30
2023-01-12T13:33:25.060Z,10.30
2023-01-12T13:36:10.128Z,10.20
2023-01-12T13:39:09.117Z,10.20
2023-01-12T13:41:56.466Z,10.20
2023-01-12T13:44:31.783Z,10.20
2023-01-12T13:47:09.782Z,10.20
2023-01-12T13:49:47.373Z,10.20
2023-01-12T13:52:29.821Z,10.20
2023-01-12T13:54:59.127Z,10.20
2023-01-12T13:57:29.700Z,10.10
2023-01-12T14:00:09.101Z,10.10
2023-01-12T14:02:42.939Z,10.10
2023-01-12T14:05:32.069Z,10.10
2023-01-12T14:08:13.244Z,10.00
2023-01-12T14:10:49.386Z,10.00
2023-01-12T14:13:43.163Z,10.00
2023-01-12T14:16:32.846Z,10.00
2023-01-12T14:19:01.782Z,10.10
2023-01-12T14:21:33.385Z,10.00
2023-01-12T14:24:16.811Z,10.00
2023-01-12T14:26:45.773Z,10.00
2023-01-12T14:29:14.595Z,10.00
2023-01-12T14:31:45.958Z,10.00
2023-01-12T14:34:25.014Z,10.00
2023-01-12T14:36:53.935Z,9.90
2023-01-12T14:39:28.101Z,9.90
2023-01-12T14:42:17.902Z,9.90
2023-01-12T14:45:09.843Z,9.80
2023-01-12T14:47:38.976Z,9.70
2023-01-12T14:50:25.943Z,9.60
2023-01-12T14:52:54.727Z,9.60
2023-01-12T14:55:39.334Z,9.50
2023-01-12T14:58:15.852Z,9.50
2023-01-12T15:00:45.552Z,9.40
2023-01-12T15:03:28.786Z,9.30
2023-01-12T15:06:05.145Z,9.30
2023-01-12T15:08:35.651Z,9.30
2023-01-12T15:11:10.881Z,9.30
2023-01-12T15:13:41.977Z,9.30
2023-01-12T15:16:28.159Z,9.40
2023-01-12T15:19:14.331Z,9.40
2023-01-12T15:22:03.027Z,9.40
2023-01-12T15:24:54.263Z,9.50
2023-01-12T15:27:25.802Z,9.50
2023-01-12T15:29:55.039Z,9.50
2023-01-12T15:32:41.436Z,9.50
2023-01-12T15:35:17.489Z,9.60
2023-01-12T15:37:46.431Z,9.60
2023-01-12T15:40:16.051Z,9.60
2023-01-12T15:42:48.793Z,9.70
2023-01-12T15:45:27.723Z,9.70
2023-01-12T15:47:56.705Z,9.70
2023-01-12T15:50:29.361Z,9.70
2023-01-12T15:52:59.118Z,9.70
2023-01-12T15:55:28.113Z,9.70
2023-01-12T15:57:58.682Z,9.70
2023-01-12T16:00:27.808Z,9.70
2023-01-12T16:03:01.289Z,9.70
2023-01-12T16:05:30.198Z,9.70
2023-01-12T16:07:59.277Z,9.70
2023-01-12T16:10:30.340Z,9.80
2023-01-12T16:13:02.034Z,9.70
2023-01-12T16:15:35.903Z,9.70
2023-01-12T16:18:06.780Z,9.70
2023-01-12T16:20:35.747Z,9.80
2023-01-12T16:23:04.506Z,9.70
2023-01-12T16:25:33.540Z,9.70
2023-01-12T16:28:03.794Z,9.80
2023-01-12T16:30:32.414Z,9.80
2023-01-12T16:33:01.108Z,9.80
2023-01-12T16:35:30.061Z,9.80
2023-01-12T16:37:58.857Z,9.80
2023-01-12T16:40:27.688Z,9.80
2023-01-12T16:42:56.505Z,9.80
2023-01-12T16:45:26.697Z,9.80
2023-01-12T16:47:58.082Z,9.80
2023-01-12T16:50:27.056Z,9.90
2023-01-12T16:52:55.758Z,9.90
2023-01-12T16:55:27.966Z,9.90
2023-01-12T16:57:56.816Z,9.90
2023-01-12T17:00:28.099Z,9.90
2023-01-12T17:02:57.319Z,9.90
2023-01-12T17:05:27.119Z,9.90
2023-01-12T17:07:55.961Z,9.90
2023-01-12T17:10:24.800Z,9.90
2023-01-12T17:12:58.594Z,9.90
2023-01-12T17:15:31.397Z,9.90
2023-01-12T17:18:00.575Z,9.90
2023-01-12T17:20:30.029Z,9.80
2023-01-12T17:22:59.845Z,9.80
2023-01-12T17:25:28.645Z,9.80
2023-01-12T17:27:57.764Z,9.80
2023-01-12T17:30:27.166Z,9.70
2023-01-12T17:32:57.467Z,9.70
2023-01-12T17:35:26.921Z,9.70
2023-01-12T17:37:56.137Z,9.60
2023-01-12T17:40:27.420Z,9.60
2023-01-12T17:43:07.787Z,9.60
2023-01-12T17:45:42.645Z,9.50
2023-01-12T17:48:13.486Z,9.50
2023-01-12T17:50:42.448Z,9.50
2023-01-12T17:53:11.436Z,9.50
2023-01-12T17:55:48.551Z,9.50
2023-01-12T17:58:18.745Z,9.50
2023-01-12T18:00:47.399Z,9.50
2023-01-12T18:03:17.716Z,9.50
2023-01-12T18:05:50.010Z,9.50
2023-01-12T18:08:22.416Z,9.50
2023-01-12T18:10:52.966Z,9.60
2023-01-12T18:13:21.692Z,9.60
2023-01-12T18:15:50.479Z,9.60
2023-01-12T18:18:20.975Z,9.70
2023-01-12T18:20:52.366Z,9.70
2023-01-12T18:23:27.084Z,9.70
2023-01-12T18:25:55.923Z,9.70
2023-01-12T18:28:24.785Z,9.70
2023-01-12T18:31:03.326Z,9.70
2023-01-12T18:33:38.438Z,9.70
2023-01-12T18:36:12.182Z,9.70
2023-01-12T18:38:41.755Z,9.70
2023-01-12T18:41:30.798Z,9.70
2023-01-12T18:44:01.314Z,9.80
2023-01-12T18:46:51.273Z,9.80
2023-01-12T18:49:22.720Z,9.80
2023-01-12T18:52:09.091Z,9.80
2023-01-12T18:54:39.889Z,9.70
2023-01-12T18:57:08.692Z,9.70
2023-01-12T18:59:37.437Z,9.80
2023-01-12T19:02:08.439Z,9.80
2023-01-12T19:05:04.386Z,9.80
2023-01-12T19:07:40.239Z,9.80
2023-01-12T19:10:10.013Z,9.80
2023-01-12T19:12:39.005Z,9.80
2023-01-12T19:15:28.607Z,9.80
2023-01-12T19:17:57.230Z,9.80
2023-01-12T19:20:29.885Z,9.80
2023-01-12T19:23:16.166Z,9.80
2023-01-12T19:26:07.609Z,9.80
2023-01-12T19:28:37.037Z,9.80
2023-01-12T19:31:09.830Z,9.70
2023-01-12T19:33:38.995Z,9.70
2023-01-12T19:36:11.518Z,9.70
2023-01-12T19:38:42.901Z,9.70
2023-01-12T19:41:13.385Z,9.70
2023-01-12T19:43:45.363Z,9.70
2023-01-12T19:46:14.417Z,9.60
2023-01-12T19:48:43.120Z,9.60
2023-01-12T19:51:15.149Z,9.60
2023-01-12T19:53:43.878Z,9.60
2023-01-12T19:56:16.383Z,9.70
2023-01-12T19:58:45.132Z,9.60
2023-01-12T20:01:21.779Z,9.60
2023-01-12T20:03:51.802Z,9.70
2023-01-12T20:06:22.010Z,9.70
2023-01-12T20:08:50.816Z,9.70
2023-01-12T20:11:19.542Z,9.70
2023-01-12T20:13:48.239Z,9.70
2023-01-12T20:16:17.413Z,9.70
2023-01-12T20:18:48.124Z,9.70
2023-01-12T20:21:17.103Z,9.70
2023-01-12T20:23:47.485Z,9.80
2023-01-12T20:26:16.260Z,9.80
2023-01-12T20:28:44.980Z,9.80
2023-01-12T20:31:15.763Z,9.80
2023-01-12T20:33:44.643Z,9.80
2023-01-12T20:36:14.097Z,9.80
2023-01-12T20:38:43.820Z,9.80
2023-01-12T20:41:14.200Z,9.90
2023-01-12T20:43:43.033Z,9.80
2023-01-12T20:46:14.075Z,9.90
2023-01-12T20:48:42.893Z,9.90
2023-01-12T20:51:15.805Z,9.90
2023-01-12T20:53:44.872Z,9.90
2023-01-12T20:56:15.228Z,10.00
2023-01-12T20:58:43.973Z,9.90
2023-01-12T21:01:14.275Z,9.90
2023-01-12T21:03:44.156Z,9.90
2023-01-12T21:06:15.019Z,9.90
2023-01-12T21:08:44.970Z,9.90
2023-01-12T21:11:17.051Z,9.90
2023-01-12T21:13:46.213Z,9.90
2023-01-12T21:16:18.182Z,9.80
2023-01-12T21:18:48.151Z,9.80
2023-01-12T21:21:16.893Z,9.80
2023-01-12T21:23:45.828Z,9.80
2023-01-12T21:26:16.455Z,9.80
2023-01-12T21:28:45.131Z,9.80
2023-01-12T21:31:14.557Z,9.90
2023-01-12T21:33:43.846Z,9.80
2023-01-12T21:36:14.264Z,9.80
2023-01-12T21:38:42.829Z,9.80
2023-01-12T21:41:12.625Z,9.80
2023-01-12T21:43:42.659Z,9.80
2023-01-12T21:46:12.015Z,9.90
2023-01-12T21:48:40.741Z,9.80
2023-01-12T21:51:13.564Z,9.80
2023-01-12T21:53:42.883Z,9.80
2023-01-12T21:56:12.992Z,9.80
2023-01-12T21:58:43.304Z,9.80
2023-01-12T22:01:14.254Z,9.80
2023-01-12T22:03:43.174Z,9.80
2023-01-12T22:06:13.966Z,9.80
2023-01-12T22:08:43.519Z,9.80
2023-01-12T22:11:14.410Z,9.80
2023-01-12T22:13:44.981Z,9.80
2023-01-12T22:16:15.492Z,9.80
2023-01-12T22:18:47.205Z,9.80
2023-01-12T22:21:16.886Z,9.80
2023-01-12T22:23:46.184Z,9.80
2023-01-12T22:26:16.570Z,9.80
2023-01-12T22:28:48.271Z,9.90
2023-01-12T22:31:18.763Z,9.90
2023-01-12T22:33:48.021Z,9.90
2023-01-12T22:36:16.813Z,9.90
2023-01-12T22:38:45.607Z,9.90
2023-01-12T22:41:16.661Z,10.00
2023-01-12T22:43:49.230Z,9.90
2023-01-12T22:46:19.282Z,9.90
2023-01-12T22:48:50.647Z,9.90
2023-01-12T22:51:20.369Z,9.90
2023-01-12T22:53:49.499Z,9.90
2023-01-12T22:56:18.836Z,9.90
2023-01-12T22:58:50.551Z,9.90
2023-01-12T23:01:20.238Z,9.90
2023-01-12T23:03:50.091Z,9.90
2023-01-12T23:06:19.245Z,9.90
2023-01-12T23:08:48.083Z,9.90
2023-01-12T23:11:19.004Z,9.90
2023-01-12T23:13:49.984Z,9.90
2023-01-12T23:16:20.339Z,10.00
2023-01-12T23:18:50.400Z,10.00
2023-01-12T23:21:22.567Z,9.90
2023-01-12T23:23:52.732Z,9.90
2023-01-12T23:26:23.129Z,9.90
2023-01-12T23:28:55.962Z,9.90
2023-01-12T23:31:27.227Z,9.90
2023-01-12T23:33:57.095Z,9.90
2023-01-12T23:36:28.969Z,9.90
2023-01-12T23:38:59.187Z,9.90
2023-01-12T23:41:29.645Z,9.90
2023-01-12T23:44:01.915Z,9.90
2023-01-12T23:46:34.051Z,9.80
2023-01-12T23:49:02.862Z,9.80
2023-01-12T23:51:31.926Z,9.90
2023-01-12T23:54:02.251Z,9.80
2023-01-12T23:56:32.956Z,9.80
2023-01-12T23:59:03.524Z,9.80
